sensor_id;sensor_type;location;lat;lon;timestamp;pressure;altitude;pressure_sealevel;temperature;humidity
28267;BME280;15525;45.568;5.448;2022-09-19T00:01:19;98328.78;;;13.81;51.45
28267;BME280;15525;45.568;5.448;2022-09-19T00:03:47;98325.91;;;13.73;51.40
28267;BME280;15525;45.568;5.448;2022-09-19T00:06:15;98321.69;;;13.62;51.33
28267;BME280;15525;45.568;5.448;2022-09-19T00:08:43;98317.81;;;13.44;51.80
28267;BME280;15525;45.568;5.448;2022-09-19T00:11:10;98317.34;;;13.32;51.95
28267;BME280;15525;45.568;5.448;2022-09-19T00:13:37;98323.81;;;13.31;52.43
28267;BME280;15525;45.568;5.448;2022-09-19T00:16:05;98316.25;;;13.33;51.99
28267;BME280;15525;45.568;5.448;2022-09-19T00:18:31;98306.03;;;13.35;52.27
28267;BME280;15525;45.568;5.448;2022-09-19T00:20:56;98310.88;;;13.33;52.05
28267;BME280;15525;45.568;5.448;2022-09-19T00:23:22;98316.31;;;13.23;52.56
28267;BME280;15525;45.568;5.448;2022-09-19T00:26:08;98308.72;;;13.35;52.13
28267;BME280;15525;45.568;5.448;2022-09-19T00:28:35;98301.81;;;13.24;52.36
28267;BME280;15525;45.568;5.448;2022-09-19T00:31:01;98306.16;;;13.20;52.35
28267;BME280;15525;45.568;5.448;2022-09-19T00:33:29;98311.44;;;13.30;52.16
28267;BME280;15525;45.568;5.448;2022-09-19T00:35:56;98307.50;;;13.18;52.42
28267;BME280;15525;45.568;5.448;2022-09-19T00:38:27;98306.41;;;13.19;52.67
28267;BME280;15525;45.568;5.448;2022-09-19T00:40:53;98303.50;;;13.15;52.09
28267;BME280;15525;45.568;5.448;2022-09-19T00:43:21;98309.59;;;13.26;52.46
28267;BME280;15525;45.568;5.448;2022-09-19T00:45:47;98294.31;;;13.21;52.22
28267;BME280;15525;45.568;5.448;2022-09-19T00:48:16;98295.03;;;13.32;52.27
28267;BME280;15525;45.568;5.448;2022-09-19T00:50:44;98296.06;;;13.41;51.61
28267;BME280;15525;45.568;5.448;2022-09-19T00:53:15;98302.72;;;13.48;51.46
28267;BME280;15525;45.568;5.448;2022-09-19T00:55:41;98291.47;;;13.41;51.65
28267;BME280;15525;45.568;5.448;2022-09-19T00:58:19;98289.31;;;13.43;51.29
28267;BME280;15525;45.568;5.448;2022-09-19T01:00:47;98283.97;;;13.38;51.67
28267;BME280;15525;45.568;5.448;2022-09-19T01:03:12;98281.59;;;13.32;51.82
28267;BME280;15525;45.568;5.448;2022-09-19T01:05:46;98277.59;;;13.29;51.97
28267;BME280;15525;45.568;5.448;2022-09-19T01:11:25;98288.81;;;13.36;51.42
28267;BME280;15525;45.568;5.448;2022-09-19T01:16:51;98269.00;;;13.27;51.62
28267;BME280;15525;45.568;5.448;2022-09-19T01:19:40;98266.34;;;13.22;51.90
28267;BME280;15525;45.568;5.448;2022-09-19T01:22:23;98272.91;;;13.06;51.90
28267;BME280;15525;45.568;5.448;2022-09-19T01:24:56;98282.06;;;12.95;51.96
28267;BME280;15525;45.568;5.448;2022-09-19T01:30:30;98276.06;;;12.70;52.86
28267;BME280;15525;45.568;5.448;2022-09-19T01:33:10;98279.50;;;12.80;52.95
28267;BME280;15525;45.568;5.448;2022-09-19T01:35:42;98289.59;;;13.03;53.35
28267;BME280;15525;45.568;5.448;2022-09-19T01:38:19;98279.66;;;12.94;52.22
28267;BME280;15525;45.568;5.448;2022-09-19T01:40:47;98277.84;;;12.84;52.36
28267;BME280;15525;45.568;5.448;2022-09-19T01:43:15;98271.53;;;12.65;52.25
28267;BME280;15525;45.568;5.448;2022-09-19T01:45:42;98282.03;;;12.52;52.99
28267;BME280;15525;45.568;5.448;2022-09-19T01:53:31;98279.75;;;12.25;53.98
28267;BME280;15525;45.568;5.448;2022-09-19T01:58:50;98270.97;;;12.63;52.97
28267;BME280;15525;45.568;5.448;2022-09-19T02:01:24;98271.97;;;12.77;52.91
28267;BME280;15525;45.568;5.448;2022-09-19T02:04:03;98273.03;;;12.81;52.23
28267;BME280;15525;45.568;5.448;2022-09-19T02:06:35;98280.84;;;12.78;52.40
28267;BME280;15525;45.568;5.448;2022-09-19T02:09:27;98277.94;;;12.64;52.97
28267;BME280;15525;45.568;5.448;2022-09-19T02:11:59;98272.56;;;12.64;52.61
28267;BME280;15525;45.568;5.448;2022-09-19T02:14:29;98272.09;;;12.57;52.58
28267;BME280;15525;45.568;5.448;2022-09-19T02:17:03;98282.25;;;12.65;52.97
28267;BME280;15525;45.568;5.448;2022-09-19T02:19:37;98278.59;;;12.41;53.10
28267;BME280;15525;45.568;5.448;2022-09-19T02:22:13;98275.25;;;12.01;54.33
28267;BME280;15525;45.568;5.448;2022-09-19T02:24:42;98279.03;;;11.90;54.68
28267;BME280;15525;45.568;5.448;2022-09-19T02:27:15;98274.44;;;12.00;54.82
28267;BME280;15525;45.568;5.448;2022-09-19T02:29:49;98287.00;;;12.15;54.57
28267;BME280;15525;45.568;5.448;2022-09-19T02:32:18;98287.00;;;12.20;54.10
28267;BME280;15525;45.568;5.448;2022-09-19T02:34:45;98274.41;;;12.15;53.83
28267;BME280;15525;45.568;5.448;2022-09-19T02:37:33;98282.47;;;12.15;53.77
28267;BME280;15525;45.568;5.448;2022-09-19T02:40:11;98275.25;;;12.01;54.70
28267;BME280;15525;45.568;5.448;2022-09-19T02:42:55;98282.19;;;12.12;54.00
28267;BME280;15525;45.568;5.448;2022-09-19T02:48:03;98273.81;;;12.23;53.95
28267;BME280;15525;45.568;5.448;2022-09-19T02:50:44;98284.59;;;12.13;54.43
28267;BME280;15525;45.568;5.448;2022-09-19T02:53:16;98270.94;;;12.05;54.49
28267;BME280;15525;45.568;5.448;2022-09-19T02:55:47;98251.91;;;12.01;54.34
28267;BME280;15525;45.568;5.448;2022-09-19T02:58:15;98272.25;;;12.12;54.21
28267;BME280;15525;45.568;5.448;2022-09-19T03:00:46;98254.34;;;11.88;54.47
28267;BME280;15525;45.568;5.448;2022-09-19T03:03:40;98266.09;;;12.17;54.04
28267;BME280;15525;45.568;5.448;2022-09-19T03:06:32;98277.34;;;12.19;53.74
28267;BME280;15525;45.568;5.448;2022-09-19T03:09:02;98271.41;;;12.27;53.15
28267;BME280;15525;45.568;5.448;2022-09-19T03:11:29;98271.69;;;12.25;53.28
28267;BME280;15525;45.568;5.448;2022-09-19T03:13:56;98271.94;;;12.29;53.06
28267;BME280;15525;45.568;5.448;2022-09-19T03:16:30;98279.97;;;12.29;53.23
28267;BME280;15525;45.568;5.448;2022-09-19T03:19:08;98274.34;;;12.30;52.97
28267;BME280;15525;45.568;5.448;2022-09-19T03:21:35;98275.16;;;12.26;53.21
28267;BME280;15525;45.568;5.448;2022-09-19T03:24:03;98278.97;;;12.15;53.24
28267;BME280;15525;45.568;5.448;2022-09-19T03:26:32;98289.97;;;12.08;54.01
28267;BME280;15525;45.568;5.448;2022-09-19T03:29:01;98282.47;;;12.10;53.65
28267;BME280;15525;45.568;5.448;2022-09-19T03:31:28;98284.09;;;12.06;53.99
28267;BME280;15525;45.568;5.448;2022-09-19T03:33:54;98281.44;;;11.96;54.21
28267;BME280;15525;45.568;5.448;2022-09-19T03:36:21;98282.75;;;11.93;53.97
28267;BME280;15525;45.568;5.448;2022-09-19T03:38:47;98279.28;;;11.93;53.93
28267;BME280;15525;45.568;5.448;2022-09-19T03:41:14;98285.44;;;11.88;54.44
28267;BME280;15525;45.568;5.448;2022-09-19T03:43:40;98280.91;;;11.89;53.85
28267;BME280;15525;45.568;5.448;2022-09-19T03:46:09;98279.81;;;11.90;54.13
28267;BME280;15525;45.568;5.448;2022-09-19T03:48:36;98272.31;;;11.92;54.03
28267;BME280;15525;45.568;5.448;2022-09-19T03:51:02;98278.75;;;11.86;54.26
28267;BME280;15525;45.568;5.448;2022-09-19T03:53:27;98249.81;;;11.68;54.16
28267;BME280;15525;45.568;5.448;2022-09-19T03:55:53;98289.22;;;11.93;53.79
28267;BME280;15525;45.568;5.448;2022-09-19T03:58:20;98283.06;;;11.92;53.79
28267;BME280;15525;45.568;5.448;2022-09-19T04:00:45;98277.69;;;11.87;53.95
28267;BME280;15525;45.568;5.448;2022-09-19T04:03:11;98290.25;;;12.17;53.80
28267;BME280;15525;45.568;5.448;2022-09-19T04:05:37;98256.91;;;12.28;52.94
28267;BME280;15525;45.568;5.448;2022-09-19T04:08:03;98277.56;;;12.27;53.27
28267;BME280;15525;45.568;5.448;2022-09-19T04:10:28;98264.44;;;12.21;53.72
28267;BME280;15525;45.568;5.448;2022-09-19T04:12:54;98258.50;;;12.34;53.21
28267;BME280;15525;45.568;5.448;2022-09-19T04:15:21;98289.28;;;12.56;52.89
28267;BME280;15525;45.568;5.448;2022-09-19T04:17:47;98281.22;;;12.56;52.50
28267;BME280;15525;45.568;5.448;2022-09-19T04:20:12;98271.13;;;12.33;52.69
28267;BME280;15525;45.568;5.448;2022-09-19T04:22:38;98273.31;;;12.16;53.15
28267;BME280;15525;45.568;5.448;2022-09-19T04:25:07;98287.19;;;12.43;52.90
28267;BME280;15525;45.568;5.448;2022-09-19T04:27:40;98283.34;;;12.59;52.54
28267;BME280;15525;45.568;5.448;2022-09-19T04:30:06;98268.66;;;12.47;52.75
28267;BME280;15525;45.568;5.448;2022-09-19T04:32:32;98279.19;;;12.33;53.10
28267;BME280;15525;45.568;5.448;2022-09-19T04:34:57;98264.97;;;12.28;52.95
28267;BME280;15525;45.568;5.448;2022-09-19T04:37:26;98274.81;;;12.47;52.58
28267;BME280;15525;45.568;5.448;2022-09-19T04:39:51;98263.50;;;12.50;52.59
28267;BME280;15525;45.568;5.448;2022-09-19T04:42:17;98280.97;;;12.53;52.75
28267;BME280;15525;45.568;5.448;2022-09-19T04:44:43;98258.19;;;12.40;52.46
28267;BME280;15525;45.568;5.448;2022-09-19T04:47:09;98269.94;;;12.54;52.53
28267;BME280;15525;45.568;5.448;2022-09-19T04:49:35;98276.38;;;12.58;52.26
28267;BME280;15525;45.568;5.448;2022-09-19T04:52:03;98282.28;;;12.55;52.50
28267;BME280;15525;45.568;5.448;2022-09-19T04:54:29;98274.59;;;12.34;52.68
28267;BME280;15525;45.568;5.448;2022-09-19T04:57:00;98262.56;;;12.21;52.83
28267;BME280;15525;45.568;5.448;2022-09-19T04:59:26;98260.72;;;12.12;53.46
28267;BME280;15525;45.568;5.448;2022-09-19T05:01:51;98267.41;;;12.19;53.77
28267;BME280;15525;45.568;5.448;2022-09-19T05:04:17;98263.41;;;12.17;53.26
28267;BME280;15525;45.568;5.448;2022-09-19T05:06:43;98277.81;;;12.36;53.24
28267;BME280;15525;45.568;5.448;2022-09-19T05:09:10;98281.28;;;12.36;52.72
28267;BME280;15525;45.568;5.448;2022-09-19T05:11:36;98284.56;;;12.28;52.94
28267;BME280;15525;45.568;5.448;2022-09-19T05:14:05;98288.56;;;12.26;53.00
28267;BME280;15525;45.568;5.448;2022-09-19T05:16:33;98278.72;;;12.06;53.56
28267;BME280;15525;45.568;5.448;2022-09-19T05:18:59;98278.97;;;12.10;53.30
28267;BME280;15525;45.568;5.448;2022-09-19T05:21:24;98276.56;;;12.08;53.53
28267;BME280;15525;45.568;5.448;2022-09-19T05:23:49;98281.44;;;11.91;53.58
28267;BME280;15525;45.568;5.448;2022-09-19T05:26:15;98271.84;;;11.65;54.31
28267;BME280;15525;45.568;5.448;2022-09-19T05:28:42;98294.06;;;11.81;54.28
28267;BME280;15525;45.568;5.448;2022-09-19T05:31:08;98287.88;;;11.85;54.26
28267;BME280;15525;45.568;5.448;2022-09-19T05:33:35;98294.25;;;12.19;53.89
28267;BME280;15525;45.568;5.448;2022-09-19T05:36:03;98308.16;;;12.31;53.26
28267;BME280;15525;45.568;5.448;2022-09-19T05:38:30;98296.09;;;12.24;53.08
28267;BME280;15525;45.568;5.448;2022-09-19T05:41:02;98304.38;;;12.42;52.81
28267;BME280;15525;45.568;5.448;2022-09-19T05:43:27;98300.38;;;12.30;53.13
28267;BME280;15525;45.568;5.448;2022-09-19T05:45:54;98315.06;;;12.57;53.01
28267;BME280;15525;45.568;5.448;2022-09-19T05:48:21;98320.28;;;12.92;52.51
28267;BME280;15525;45.568;5.448;2022-09-19T05:50:48;98311.75;;;12.75;52.45
28267;BME280;15525;45.568;5.448;2022-09-19T05:53:15;98300.91;;;12.37;53.00
28267;BME280;15525;45.568;5.448;2022-09-19T05:56:00;98316.47;;;12.30;53.04
28267;BME280;15525;45.568;5.448;2022-09-19T05:58:26;98320.25;;;12.24;53.00
28267;BME280;15525;45.568;5.448;2022-09-19T06:00:52;98316.53;;;12.15;53.17
28267;BME280;15525;45.568;5.448;2022-09-19T06:03:18;98327.03;;;12.01;53.26
28267;BME280;15525;45.568;5.448;2022-09-19T06:05:46;98317.38;;;11.85;54.11
28267;BME280;15525;45.568;5.448;2022-09-19T06:08:14;98308.53;;;11.74;53.85
28267;BME280;15525;45.568;5.448;2022-09-19T06:10:42;98319.28;;;11.69;54.03
28267;BME280;15525;45.568;5.448;2022-09-19T06:13:19;98304.50;;;11.57;55.18
28267;BME280;15525;45.568;5.448;2022-09-19T06:15:45;98317.38;;;11.85;54.09
28267;BME280;15525;45.568;5.448;2022-09-19T06:18:11;98329.72;;;12.06;53.78
28267;BME280;15525;45.568;5.448;2022-09-19T06:20:40;98325.91;;;12.22;53.43
28267;BME280;15525;45.568;5.448;2022-09-19T06:23:07;98328.84;;;12.31;53.42
28267;BME280;15525;45.568;5.448;2022-09-19T06:25:35;98332.28;;;12.41;53.19
28267;BME280;15525;45.568;5.448;2022-09-19T06:28:08;98312.94;;;12.44;53.17
28267;BME280;15525;45.568;5.448;2022-09-19T06:30:36;98298.97;;;12.52;52.72
28267;BME280;15525;45.568;5.448;2022-09-19T06:33:04;98311.03;;;12.55;52.73
28267;BME280;15525;45.568;5.448;2022-09-19T06:35:31;98321.81;;;12.35;53.41
28267;BME280;15525;45.568;5.448;2022-09-19T06:38:02;98318.09;;;12.31;54.48
28267;BME280;15525;45.568;5.448;2022-09-19T06:40:29;98325.81;;;12.52;53.83
28267;BME280;15525;45.568;5.448;2022-09-19T06:42:59;98308.59;;;12.58;54.00
28267;BME280;15525;45.568;5.448;2022-09-19T06:45:30;98313.47;;;12.46;54.16
28267;BME280;15525;45.568;5.448;2022-09-19T06:47:57;98313.94;;;12.63;54.14
28267;BME280;15525;45.568;5.448;2022-09-19T06:50:23;98309.13;;;12.65;54.24
28267;BME280;15525;45.568;5.448;2022-09-19T06:52:49;98306.94;;;12.67;54.21
28267;BME280;15525;45.568;5.448;2022-09-19T06:55:14;98309.00;;;12.85;54.51
28267;BME280;15525;45.568;5.448;2022-09-19T06:57:40;98297.34;;;13.10;53.76
28267;BME280;15525;45.568;5.448;2022-09-19T07:00:06;98289.03;;;13.06;53.64
28267;BME280;15525;45.568;5.448;2022-09-19T07:02:31;98308.72;;;13.35;53.43
28267;BME280;15525;45.568;5.448;2022-09-19T07:04:57;98310.19;;;13.51;53.08
28267;BME280;15525;45.568;5.448;2022-09-19T07:07:22;98313.38;;;13.58;53.31
28267;BME280;15525;45.568;5.448;2022-09-19T07:09:48;98307.41;;;13.66;53.15
28267;BME280;15525;45.568;5.448;2022-09-19T07:12:14;98286.94;;;13.65;53.38
28267;BME280;15525;45.568;5.448;2022-09-19T07:14:39;98314.06;;;14.02;52.84
28267;BME280;15525;45.568;5.448;2022-09-19T07:17:06;98303.25;;;14.07;53.00
28267;BME280;15525;45.568;5.448;2022-09-19T07:19:32;98296.22;;;14.11;52.94
28267;BME280;15525;45.568;5.448;2022-09-19T07:21:57;98307.34;;;14.28;52.63
28267;BME280;15525;45.568;5.448;2022-09-19T07:24:23;98313.03;;;14.27;52.75
28267;BME280;15525;45.568;5.448;2022-09-19T07:26:49;98315.16;;;14.30;53.24
28267;BME280;15525;45.568;5.448;2022-09-19T07:29:14;98311.69;;;14.24;53.43
28267;BME280;15525;45.568;5.448;2022-09-19T07:31:40;98310.91;;;14.47;52.77
28267;BME280;15525;45.568;5.448;2022-09-19T07:34:05;98305.47;;;14.52;52.75
28267;BME280;15525;45.568;5.448;2022-09-19T07:36:30;98317.66;;;14.68;52.74
28267;BME280;15525;45.568;5.448;2022-09-19T07:38:56;98314.13;;;14.73;52.26
28267;BME280;15525;45.568;5.448;2022-09-19T07:41:21;98329.81;;;15.08;51.68
28267;BME280;15525;45.568;5.448;2022-09-19T07:43:50;98311.09;;;15.16;51.69
28267;BME280;15525;45.568;5.448;2022-09-19T07:46:15;98321.00;;;15.21;52.22
28267;BME280;15525;45.568;5.448;2022-09-19T07:48:42;98330.63;;;15.08;52.14
28267;BME280;15525;45.568;5.448;2022-09-19T07:51:09;98315.88;;;15.19;52.39
28267;BME280;15525;45.568;5.448;2022-09-19T07:53:35;98320.78;;;15.54;51.53
28267;BME280;15525;45.568;5.448;2022-09-19T07:56:01;98321.00;;;15.58;51.39
28267;BME280;15525;45.568;5.448;2022-09-19T07:58:27;98329.06;;;15.76;50.96
28267;BME280;15525;45.568;5.448;2022-09-19T08:00:53;98322.28;;;15.79;51.29
28267;BME280;15525;45.568;5.448;2022-09-19T08:03:20;98321.63;;;15.68;51.77
28267;BME280;15525;45.568;5.448;2022-09-19T08:05:50;98311.31;;;15.89;51.18
28267;BME280;15525;45.568;5.448;2022-09-19T08:08:18;98318.47;;;16.25;50.56
28267;BME280;15525;45.568;5.448;2022-09-19T08:10:44;98308.97;;;16.14;50.65
28267;BME280;15525;45.568;5.448;2022-09-19T08:13:12;98292.41;;;16.02;50.27
28267;BME280;15525;45.568;5.448;2022-09-19T08:15:38;98301.75;;;16.23;50.31
28267;BME280;15525;45.568;5.448;2022-09-19T08:18:11;98318.22;;;16.40;50.04
28267;BME280;15525;45.568;5.448;2022-09-19T08:20:39;98310.22;;;16.49;50.04
28267;BME280;15525;45.568;5.448;2022-09-19T08:23:08;98299.50;;;16.71;49.21
28267;BME280;15525;45.568;5.448;2022-09-19T08:25:37;98309.00;;;16.55;50.10
28267;BME280;15525;45.568;5.448;2022-09-19T08:28:08;98331.13;;;16.70;49.72
28267;BME280;15525;45.568;5.448;2022-09-19T08:30:34;98320.34;;;17.06;49.02
28267;BME280;15525;45.568;5.448;2022-09-19T08:33:00;98319.03;;;17.17;48.85
28267;BME280;15525;45.568;5.448;2022-09-19T08:35:29;98335.88;;;17.27;48.74
28267;BME280;15525;45.568;5.448;2022-09-19T08:37:56;98326.50;;;17.33;48.52
28267;BME280;15525;45.568;5.448;2022-09-19T08:40:31;98327.41;;;17.42;48.89
28267;BME280;15525;45.568;5.448;2022-09-19T08:45:41;98328.22;;;17.87;48.10
28267;BME280;15525;45.568;5.448;2022-09-19T08:48:19;98333.19;;;18.15;47.14
28267;BME280;15525;45.568;5.448;2022-09-19T08:50:57;98320.66;;;18.28;47.25
28267;BME280;15525;45.568;5.448;2022-09-19T08:53:33;98329.31;;;18.69;47.18
28267;BME280;15525;45.568;5.448;2022-09-19T08:56:02;98315.75;;;18.30;47.19
28267;BME280;15525;45.568;5.448;2022-09-19T08:58:30;98329.72;;;18.23;47.26
28267;BME280;15525;45.568;5.448;2022-09-19T09:01:00;98322.38;;;18.54;47.10
28267;BME280;15525;45.568;5.448;2022-09-19T09:03:37;98314.53;;;18.92;46.06
28267;BME280;15525;45.568;5.448;2022-09-19T09:09:17;98325.94;;;19.36;45.43
28267;BME280;15525;45.568;5.448;2022-09-19T09:17:26;98326.28;;;19.43;45.30
28267;BME280;15525;45.568;5.448;2022-09-19T09:23:10;98325.13;;;20.04;44.04
28267;BME280;15525;45.568;5.448;2022-09-19T09:25:47;98331.84;;;19.98;43.90
28267;BME280;15525;45.568;5.448;2022-09-19T09:28:32;98335.19;;;20.20;43.18
28267;BME280;15525;45.568;5.448;2022-09-19T09:31:08;98336.28;;;20.28;42.88
28267;BME280;15525;45.568;5.448;2022-09-19T09:33:46;98320.69;;;20.83;42.19
28267;BME280;15525;45.568;5.448;2022-09-19T09:36:17;98333.94;;;21.43;41.43
28267;BME280;15525;45.568;5.448;2022-09-19T09:38:57;98326.84;;;21.30;41.66
28267;BME280;15525;45.568;5.448;2022-09-19T09:49:53;98327.38;;;21.44;41.41
28267;BME280;15525;45.568;5.448;2022-09-19T09:52:36;98325.88;;;21.05;41.33
28267;BME280;15525;45.568;5.448;2022-09-19T09:58:18;98334.41;;;21.45;40.73
28267;BME280;15525;45.568;5.448;2022-09-19T10:00:54;98329.19;;;21.81;40.55
28267;BME280;15525;45.568;5.448;2022-09-19T10:03:59;98323.38;;;21.62;39.92
28267;BME280;15525;45.568;5.448;2022-09-19T10:06:35;98298.81;;;22.03;39.47
28267;BME280;15525;45.568;5.448;2022-09-19T10:09:33;98297.28;;;22.26;38.65
28267;BME280;15525;45.568;5.448;2022-09-19T10:12:25;98317.81;;;22.11;39.52
28267;BME280;15525;45.568;5.448;2022-09-19T10:14:56;98306.53;;;22.01;39.68
28267;BME280;15525;45.568;5.448;2022-09-19T10:17:24;98306.38;;;22.42;39.31
28267;BME280;15525;45.568;5.448;2022-09-19T10:19:56;98295.91;;;22.32;38.94
28267;BME280;15525;45.568;5.448;2022-09-19T10:22:23;98309.97;;;22.78;38.88
28267;BME280;15525;45.568;5.448;2022-09-19T10:24:56;98311.22;;;22.81;38.84
28267;BME280;15525;45.568;5.448;2022-09-19T10:30:15;98307.91;;;22.75;38.27
28267;BME280;15525;45.568;5.448;2022-09-19T10:32:42;98304.94;;;23.16;38.23
28267;BME280;15525;45.568;5.448;2022-09-19T10:35:30;98298.25;;;22.90;37.36
28267;BME280;15525;45.568;5.448;2022-09-19T10:38:11;98283.69;;;22.74;37.86
28267;BME280;15525;45.568;5.448;2022-09-19T10:40:56;98285.53;;;23.45;37.20
28267;BME280;15525;45.568;5.448;2022-09-19T10:43:47;98298.63;;;23.79;37.25
28267;BME280;15525;45.568;5.448;2022-09-19T10:46:19;98284.88;;;24.19;36.40
28267;BME280;15525;45.568;5.448;2022-09-19T10:48:54;98281.34;;;23.63;36.78
28267;BME280;15525;45.568;5.448;2022-09-19T10:51:24;98284.03;;;23.48;37.39
28267;BME280;15525;45.568;5.448;2022-09-19T10:53:54;98278.13;;;23.46;37.27
28267;BME280;15525;45.568;5.448;2022-09-19T10:56:32;98284.16;;;24.06;37.20
28267;BME280;15525;45.568;5.448;2022-09-19T11:01:36;98287.28;;;24.36;35.86
28267;BME280;15525;45.568;5.448;2022-09-19T11:04:05;98288.97;;;24.71;35.28
28267;BME280;15525;45.568;5.448;2022-09-19T11:06:32;98281.16;;;24.42;35.17
28267;BME280;15525;45.568;5.448;2022-09-19T11:08:59;98281.88;;;24.55;35.06
28267;BME280;15525;45.568;5.448;2022-09-19T11:11:42;98286.91;;;24.84;33.29
28267;BME280;15525;45.568;5.448;2022-09-19T11:14:14;98276.66;;;24.81;34.19
28267;BME280;15525;45.568;5.448;2022-09-19T11:20:05;98290.72;;;24.48;33.48
28267;BME280;15525;45.568;5.448;2022-09-19T11:25:31;98290.75;;;23.78;34.60
28267;BME280;15525;45.568;5.448;2022-09-19T11:33:28;98280.13;;;24.93;33.67
28267;BME280;15525;45.568;5.448;2022-09-19T11:38:55;98269.47;;;25.61;31.76
28267;BME280;15525;45.568;5.448;2022-09-19T11:44:31;98271.19;;;26.29;31.36
28267;BME280;15525;45.568;5.448;2022-09-19T11:50:39;98278.97;;;25.29;32.32
28267;BME280;15525;45.568;5.448;2022-09-19T11:56:16;98254.66;;;25.46;31.96
28267;BME280;15525;45.568;5.448;2022-09-19T11:59:06;98246.59;;;26.14;32.47
28267;BME280;15525;45.568;5.448;2022-09-19T12:04:48;98265.22;;;24.60;34.01
28267;BME280;15525;45.568;5.448;2022-09-19T12:07:36;98260.44;;;25.07;33.58
28267;BME280;15525;45.568;5.448;2022-09-19T12:10:28;98253.81;;;25.80;32.43
28267;BME280;15525;45.568;5.448;2022-09-19T12:15:38;98240.78;;;25.77;31.97
28267;BME280;15525;45.568;5.448;2022-09-19T12:18:11;98244.53;;;26.30;31.46
28267;BME280;15525;45.568;5.448;2022-09-19T12:20:41;98233.72;;;26.89;31.31
28267;BME280;15525;45.568;5.448;2022-09-19T12:23:28;98231.22;;;27.65;30.58
28267;BME280;15525;45.568;5.448;2022-09-19T12:26:18;98240.44;;;25.98;31.49
28267;BME280;15525;45.568;5.448;2022-09-19T12:28:54;98238.84;;;25.21;32.96
28267;BME280;15525;45.568;5.448;2022-09-19T12:31:27;98227.88;;;25.78;32.38
28267;BME280;15525;45.568;5.448;2022-09-19T12:34:01;98226.06;;;26.04;31.39
28267;BME280;15525;45.568;5.448;2022-09-19T12:36:47;98237.50;;;26.32;30.83
28267;BME280;15525;45.568;5.448;2022-09-19T12:39:35;98233.56;;;26.30;30.44
28267;BME280;15525;45.568;5.448;2022-09-19T12:42:11;98218.50;;;25.79;30.50
28267;BME280;15525;45.568;5.448;2022-09-19T12:44:59;98235.81;;;25.83;31.07
28267;BME280;15525;45.568;5.448;2022-09-19T12:50:40;98237.69;;;26.20;31.01
28267;BME280;15525;45.568;5.448;2022-09-19T12:53:39;98236.66;;;26.28;30.56
28267;BME280;15525;45.568;5.448;2022-09-19T12:56:20;98234.16;;;26.42;30.28
28267;BME280;15525;45.568;5.448;2022-09-19T12:59:01;98241.84;;;26.11;30.94
28267;BME280;15525;45.568;5.448;2022-09-19T13:01:41;98223.72;;;25.65;30.80
28267;BME280;15525;45.568;5.448;2022-09-19T13:06:53;98233.41;;;26.68;30.48
28267;BME280;15525;45.568;5.448;2022-09-19T13:09:25;98223.91;;;26.88;30.03
28267;BME280;15525;45.568;5.448;2022-09-19T13:11:57;98242.00;;;27.44;29.73
28267;BME280;15525;45.568;5.448;2022-09-19T13:14:39;98236.16;;;27.49;29.16
28267;BME280;15525;45.568;5.448;2022-09-19T13:17:10;98238.50;;;27.51;29.11
28267;BME280;15525;45.568;5.448;2022-09-19T13:19:55;98240.56;;;27.28;29.78
28267;BME280;15525;45.568;5.448;2022-09-19T13:22:50;98225.72;;;25.87;30.93
28267;BME280;15525;45.568;5.448;2022-09-19T13:25:36;98236.97;;;26.01;31.45
28267;BME280;15525;45.568;5.448;2022-09-19T13:28:28;98234.88;;;25.94;31.84
28267;BME280;15525;45.568;5.448;2022-09-19T13:39:00;98225.75;;;27.36;30.18
28267;BME280;15525;45.568;5.448;2022-09-19T13:41:44;98238.06;;;27.78;29.92
28267;BME280;15525;45.568;5.448;2022-09-19T13:46:55;98230.72;;;28.29;28.79
28267;BME280;15525;45.568;5.448;2022-09-19T13:49:34;98232.91;;;28.10;29.07
28267;BME280;15525;45.568;5.448;2022-09-19T13:52:09;98223.50;;;28.11;29.62
28267;BME280;15525;45.568;5.448;2022-09-19T13:57:26;98223.00;;;28.96;28.03
28267;BME280;15525;45.568;5.448;2022-09-19T13:59:55;98218.66;;;28.41;28.88
28267;BME280;15525;45.568;5.448;2022-09-19T14:02:41;98228.22;;;27.15;30.35
28267;BME280;15525;45.568;5.448;2022-09-19T14:10:24;98218.34;;;27.73;29.87
28267;BME280;15525;45.568;5.448;2022-09-19T14:12:53;98228.50;;;27.69;29.91
28267;BME280;15525;45.568;5.448;2022-09-19T14:23:13;98226.53;;;27.33;29.96
28267;BME280;15525;45.568;5.448;2022-09-19T14:25:41;98211.84;;;26.96;30.30
28267;BME280;15525;45.568;5.448;2022-09-19T14:30:59;98228.88;;;26.79;30.58
28267;BME280;15525;45.568;5.448;2022-09-19T14:41:38;98212.81;;;27.73;29.50
28267;BME280;15525;45.568;5.448;2022-09-19T14:47:09;98205.72;;;28.05;28.58
28267;BME280;15525;45.568;5.448;2022-09-19T14:49:45;98213.50;;;27.96;28.92
28267;BME280;15525;45.568;5.448;2022-09-19T14:52:21;98208.94;;;28.14;28.80
28267;BME280;15525;45.568;5.448;2022-09-19T14:55:20;98209.91;;;28.35;28.71
28267;BME280;15525;45.568;5.448;2022-09-19T14:57:46;98197.28;;;28.27;28.69
28267;BME280;15525;45.568;5.448;2022-09-19T15:00:23;98197.91;;;28.54;28.16
28267;BME280;15525;45.568;5.448;2022-09-19T15:02:50;98200.75;;;28.68;28.25
28267;BME280;15525;45.568;5.448;2022-09-19T15:05:36;98206.78;;;27.93;28.55
28267;BME280;15525;45.568;5.448;2022-09-19T15:08:28;98206.16;;;28.07;28.43
28267;BME280;15525;45.568;5.448;2022-09-19T15:11:00;98203.41;;;28.10;28.04
28267;BME280;15525;45.568;5.448;2022-09-19T15:13:27;98199.13;;;28.16;27.94
28267;BME280;15525;45.568;5.448;2022-09-19T15:15:59;98187.84;;;27.85;28.18
28267;BME280;15525;45.568;5.448;2022-09-19T15:18:29;98193.41;;;26.96;28.99
28267;BME280;15525;45.568;5.448;2022-09-19T15:20:58;98193.63;;;27.43;29.08
28267;BME280;15525;45.568;5.448;2022-09-19T15:23:27;98186.69;;;27.89;28.38
28267;BME280;15525;45.568;5.448;2022-09-19T15:25:55;98203.69;;;27.62;28.93
28267;BME280;15525;45.568;5.448;2022-09-19T15:28:29;98193.38;;;27.88;28.33
28267;BME280;15525;45.568;5.448;2022-09-19T15:30:57;98210.84;;;28.06;28.36